Anchorage/Merrill Field, Alaska
Current Conditions -  °F | °C
As of 7:57 AM on Friday 28 Nov 2014 (Local Time) from PAMR Reporting Station
Overcast Overcast  
Wind Chill: 20°   Ceiling: 12000
Heat Index: 20°   Visibility: 10mi
Dew Point: 16°   Wind: 3mph
Humidity: 85%   Direction: 10°N
Pressure: 30.19"   Gusts: NA
Location:  61.21°N, 149.85°W
Report Text: PAMR 281657Z 01003KT 10SM SCT003 OVC120 M07/M09 A3019 RMK AO2 T10671089
Loading
Personal Weather Stations






























Interactive Weather Map New forecast layout! Learn more

10-Day Weather Forecast

Advertisements
Track Severe Weather on mobile